YCLM weather

Public forecast

Using degrees Celsius for public forecast. Weather courtesy of forecast.io.

Closest aviation weather report (METAR) to Collymongle Airport

Closest report is Moree Airport, 57.7 nm (106.8 km) E. Retrieved 2020/08/12 17:00 UTC (10 minutes ago):

YMOR 121700Z AUTO 02009KT 9999 // NCD 13/07 Q1013

Closest aviation forecast (TAF) to Collymongle Airport

Closest forecast is Tamworth Airport, 146.6 nm (271.5 km) SE. Retrieved 2020/08/12 12:36 UTC (5 hours ago):

TAF TAF YSTW 121036Z 1212/1306 02005KT CAVOK